sensor_id;sensor_type;location;lat;lon;timestamp;P1;durP1;ratioP1;P2;durP2;ratioP2
52926;SDS011;40783;49.710;8.842;2023-03-01T00:02:08;20.10;;;11.80;;
52926;SDS011;40783;49.710;8.842;2023-03-01T00:04:38;28.25;;;13.48;;
52926;SDS011;40783;49.710;8.842;2023-03-01T00:07:03;22.83;;;11.50;;
52926;SDS011;40783;49.710;8.842;2023-03-01T00:09:31;33.47;;;13.48;;
52926;SDS011;40783;49.710;8.842;2023-03-01T00:11:58;22.07;;;12.10;;
52926;SDS011;40783;49.710;8.842;2023-03-01T00:14:28;19.20;;;11.68;;
52926;SDS011;40783;49.710;8.842;2023-03-01T00:16:54;31.35;;;11.73;;
52926;SDS011;40783;49.710;8.842;2023-03-01T00:19:23;22.83;;;12.50;;
52926;SDS011;40783;49.710;8.842;2023-03-01T00:21:51;23.33;;;11.88;;
52926;SDS011;40783;49.710;8.842;2023-03-01T00:24:19;22.85;;;13.75;;
52926;SDS011;40783;49.710;8.842;2023-03-01T00:26:47;24.55;;;13.70;;
52926;SDS011;40783;49.710;8.842;2023-03-01T00:29:12;23.37;;;12.27;;
52926;SDS011;40783;49.710;8.842;2023-03-01T00:31:39;20.88;;;10.43;;
52926;SDS011;40783;49.710;8.842;2023-03-01T00:34:05;22.20;;;10.40;;
52926;SDS011;40783;49.710;8.842;2023-03-01T00:36:35;25.35;;;13.10;;
52926;SDS011;40783;49.710;8.842;2023-03-01T00:39:02;24.83;;;10.65;;
52926;SDS011;40783;49.710;8.842;2023-03-01T00:41:29;23.65;;;10.98;;
52926;SDS011;40783;49.710;8.842;2023-03-01T00:43:58;16.17;;;10.57;;
52926;SDS011;40783;49.710;8.842;2023-03-01T00:46:29;21.23;;;12.80;;
52926;SDS011;40783;49.710;8.842;2023-03-01T00:48:55;21.50;;;11.48;;
52926;SDS011;40783;49.710;8.842;2023-03-01T00:51:24;24.65;;;13.23;;
52926;SDS011;40783;49.710;8.842;2023-03-01T00:53:52;23.10;;;12.32;;
52926;SDS011;40783;49.710;8.842;2023-03-01T00:56:19;24.27;;;11.38;;
52926;SDS011;40783;49.710;8.842;2023-03-01T00:58:47;22.30;;;12.50;;
52926;SDS011;40783;49.710;8.842;2023-03-01T01:01:13;26.90;;;12.77;;
52926;SDS011;40783;49.710;8.842;2023-03-01T01:03:44;20.40;;;10.90;;
52926;SDS011;40783;49.710;8.842;2023-03-01T01:06:15;20.17;;;11.65;;
52926;SDS011;40783;49.710;8.842;2023-03-01T01:08:47;23.52;;;11.15;;
52926;SDS011;40783;49.710;8.842;2023-03-01T01:11:17;26.45;;;12.27;;
52926;SDS011;40783;49.710;8.842;2023-03-01T01:13:44;21.10;;;13.07;;
52926;SDS011;40783;49.710;8.842;2023-03-01T01:16:13;21.08;;;10.18;;
52926;SDS011;40783;49.710;8.842;2023-03-01T01:18:39;21.98;;;9.95;;
52926;SDS011;40783;49.710;8.842;2023-03-01T01:21:09;26.63;;;11.98;;
52926;SDS011;40783;49.710;8.842;2023-03-01T01:23:37;18.90;;;9.68;;
52926;SDS011;40783;49.710;8.842;2023-03-01T01:26:06;17.45;;;11.48;;
52926;SDS011;40783;49.710;8.842;2023-03-01T01:28:33;14.98;;;9.90;;
52926;SDS011;40783;49.710;8.842;2023-03-01T01:31:01;20.80;;;10.63;;
52926;SDS011;40783;49.710;8.842;2023-03-01T01:33:26;15.43;;;10.10;;
52926;SDS011;40783;49.710;8.842;2023-03-01T01:35:52;29.85;;;11.90;;
52926;SDS011;40783;49.710;8.842;2023-03-01T01:38:18;16.73;;;9.82;;
52926;SDS011;40783;49.710;8.842;2023-03-01T01:40:44;20.60;;;9.97;;
52926;SDS011;40783;49.710;8.842;2023-03-01T01:43:16;21.77;;;10.52;;
52926;SDS011;40783;49.710;8.842;2023-03-01T01:45:45;19.90;;;11.15;;
52926;SDS011;40783;49.710;8.842;2023-03-01T01:48:12;17.77;;;12.37;;
52926;SDS011;40783;49.710;8.842;2023-03-01T01:50:42;24.52;;;12.35;;
52926;SDS011;40783;49.710;8.842;2023-03-01T01:53:14;22.05;;;13.43;;
52926;SDS011;40783;49.710;8.842;2023-03-01T01:55:43;22.02;;;12.52;;
52926;SDS011;40783;49.710;8.842;2023-03-01T01:58:15;48.20;;;14.35;;
52926;SDS011;40783;49.710;8.842;2023-03-01T02:00:44;23.73;;;12.77;;
52926;SDS011;40783;49.710;8.842;2023-03-01T02:03:15;24.98;;;11.02;;
52926;SDS011;40783;49.710;8.842;2023-03-01T02:08:12;18.52;;;10.82;;
52926;SDS011;40783;49.710;8.842;2023-03-01T02:10:41;19.35;;;10.40;;
52926;SDS011;40783;49.710;8.842;2023-03-01T02:13:08;21.27;;;12.18;;
52926;SDS011;40783;49.710;8.842;2023-03-01T02:15:35;18.35;;;10.18;;
52926;SDS011;40783;49.710;8.842;2023-03-01T02:18:02;17.08;;;10.90;;
52926;SDS011;40783;49.710;8.842;2023-03-01T02:23:03;22.33;;;10.18;;
52926;SDS011;40783;49.710;8.842;2023-03-01T02:30:40;26.20;;;10.77;;
52926;SDS011;40783;49.710;8.842;2023-03-01T02:33:28;20.47;;;12.40;;
52926;SDS011;40783;49.710;8.842;2023-03-01T02:35:57;20.50;;;9.25;;
52926;SDS011;40783;49.710;8.842;2023-03-01T02:38:24;21.73;;;11.15;;
52926;SDS011;40783;49.710;8.842;2023-03-01T02:40:52;20.73;;;10.65;;
52926;SDS011;40783;49.710;8.842;2023-03-01T02:43:22;18.92;;;10.10;;
52926;SDS011;40783;49.710;8.842;2023-03-01T02:45:56;26.75;;;11.95;;
52926;SDS011;40783;49.710;8.842;2023-03-01T02:48:25;22.92;;;11.10;;
52926;SDS011;40783;49.710;8.842;2023-03-01T02:53:32;18.42;;;9.00;;
52926;SDS011;40783;49.710;8.842;2023-03-01T02:56:06;21.63;;;11.55;;
52926;SDS011;40783;49.710;8.842;2023-03-01T02:58:37;16.88;;;9.02;;
52926;SDS011;40783;49.710;8.842;2023-03-01T03:01:10;21.17;;;9.63;;
52926;SDS011;40783;49.710;8.842;2023-03-01T03:03:36;19.95;;;10.48;;
52926;SDS011;40783;49.710;8.842;2023-03-01T03:06:01;16.43;;;10.37;;
52926;SDS011;40783;49.710;8.842;2023-03-01T03:08:27;22.90;;;10.57;;
52926;SDS011;40783;49.710;8.842;2023-03-01T03:10:54;21.65;;;11.30;;
52926;SDS011;40783;49.710;8.842;2023-03-01T03:13:22;18.97;;;9.53;;
52926;SDS011;40783;49.710;8.842;2023-03-01T03:15:53;19.60;;;11.52;;
52926;SDS011;40783;49.710;8.842;2023-03-01T03:18:24;21.40;;;11.95;;
52926;SDS011;40783;49.710;8.842;2023-03-01T03:20:53;28.15;;;11.45;;
52926;SDS011;40783;49.710;8.842;2023-03-01T03:23:19;21.05;;;10.10;;
52926;SDS011;40783;49.710;8.842;2023-03-01T03:25:49;21.75;;;11.13;;
52926;SDS011;40783;49.710;8.842;2023-03-01T03:28:16;17.80;;;10.80;;
52926;SDS011;40783;49.710;8.842;2023-03-01T03:30:43;28.05;;;12.23;;
52926;SDS011;40783;49.710;8.842;2023-03-01T03:33:12;18.58;;;9.70;;
52926;SDS011;40783;49.710;8.842;2023-03-01T03:35:44;18.50;;;10.57;;
52926;SDS011;40783;49.710;8.842;2023-03-01T03:38:11;16.67;;;10.88;;
52926;SDS011;40783;49.710;8.842;2023-03-01T03:40:41;19.67;;;11.23;;
52926;SDS011;40783;49.710;8.842;2023-03-01T03:43:21;21.08;;;11.05;;
52926;SDS011;40783;49.710;8.842;2023-03-01T03:45:51;23.23;;;10.93;;
52926;SDS011;40783;49.710;8.842;2023-03-01T03:48:18;21.58;;;10.73;;
52926;SDS011;40783;49.710;8.842;2023-03-01T03:50:48;23.75;;;12.40;;
52926;SDS011;40783;49.710;8.842;2023-03-01T03:53:19;23.15;;;11.23;;
52926;SDS011;40783;49.710;8.842;2023-03-01T03:55:46;22.80;;;9.77;;
52926;SDS011;40783;49.710;8.842;2023-03-01T03:58:14;21.08;;;10.25;;
52926;SDS011;40783;49.710;8.842;2023-03-01T04:00:42;24.02;;;11.60;;
52926;SDS011;40783;49.710;8.842;2023-03-01T04:03:11;17.52;;;10.02;;
52926;SDS011;40783;49.710;8.842;2023-03-01T04:05:38;23.20;;;9.30;;
52926;SDS011;40783;49.710;8.842;2023-03-01T04:08:05;31.70;;;10.80;;
52926;SDS011;40783;49.710;8.842;2023-03-01T04:13:10;21.83;;;12.27;;
52926;SDS011;40783;49.710;8.842;2023-03-01T04:15:37;21.05;;;10.10;;
52926;SDS011;40783;49.710;8.842;2023-03-01T04:18:04;26.35;;;14.80;;
52926;SDS011;40783;49.710;8.842;2023-03-01T04:20:30;22.45;;;10.68;;
52926;SDS011;40783;49.710;8.842;2023-03-01T04:23:01;23.15;;;11.68;;
52926;SDS011;40783;49.710;8.842;2023-03-01T04:30:54;33.40;;;17.52;;
52926;SDS011;40783;49.710;8.842;2023-03-01T04:33:21;20.02;;;12.98;;
52926;SDS011;40783;49.710;8.842;2023-03-01T04:35:47;24.35;;;14.48;;
52926;SDS011;40783;49.710;8.842;2023-03-01T04:38:16;19.98;;;11.43;;
52926;SDS011;40783;49.710;8.842;2023-03-01T04:40:48;21.60;;;12.85;;
52926;SDS011;40783;49.710;8.842;2023-03-01T04:43:18;19.52;;;11.25;;
52926;SDS011;40783;49.710;8.842;2023-03-01T04:45:44;20.75;;;12.30;;
52926;SDS011;40783;49.710;8.842;2023-03-01T04:48:09;24.83;;;12.07;;
52926;SDS011;40783;49.710;8.842;2023-03-01T04:50:36;28.02;;;11.98;;
52926;SDS011;40783;49.710;8.842;2023-03-01T04:53:02;25.47;;;12.40;;
52926;SDS011;40783;49.710;8.842;2023-03-01T04:55:28;22.80;;;12.00;;
52926;SDS011;40783;49.710;8.842;2023-03-01T04:57:54;22.73;;;12.05;;
52926;SDS011;40783;49.710;8.842;2023-03-01T05:00:19;23.40;;;10.40;;
52926;SDS011;40783;49.710;8.842;2023-03-01T05:05:14;22.92;;;12.75;;
52926;SDS011;40783;49.710;8.842;2023-03-01T05:07:39;19.80;;;12.23;;
52926;SDS011;40783;49.710;8.842;2023-03-01T05:10:07;21.23;;;11.17;;
52926;SDS011;40783;49.710;8.842;2023-03-01T05:12:35;21.48;;;10.70;;
52926;SDS011;40783;49.710;8.842;2023-03-01T05:15:02;19.08;;;11.57;;
52926;SDS011;40783;49.710;8.842;2023-03-01T05:17:31;20.10;;;11.93;;
52926;SDS011;40783;49.710;8.842;2023-03-01T05:19:58;27.80;;;13.38;;
52926;SDS011;40783;49.710;8.842;2023-03-01T05:22:24;21.85;;;10.60;;
52926;SDS011;40783;49.710;8.842;2023-03-01T05:24:50;31.35;;;12.55;;
52926;SDS011;40783;49.710;8.842;2023-03-01T05:27:19;26.98;;;16.73;;
52926;SDS011;40783;49.710;8.842;2023-03-01T05:29:47;28.80;;;16.90;;
52926;SDS011;40783;49.710;8.842;2023-03-01T05:32:12;29.50;;;19.10;;
52926;SDS011;40783;49.710;8.842;2023-03-01T05:34:40;33.25;;;19.00;;
52926;SDS011;40783;49.710;8.842;2023-03-01T05:37:06;25.15;;;12.70;;
52926;SDS011;40783;49.710;8.842;2023-03-01T05:39:34;29.27;;;14.13;;
52926;SDS011;40783;49.710;8.842;2023-03-01T05:42:00;27.40;;;13.73;;
52926;SDS011;40783;49.710;8.842;2023-03-01T05:44:28;22.10;;;13.13;;
52926;SDS011;40783;49.710;8.842;2023-03-01T05:46:56;25.88;;;12.63;;
52926;SDS011;40783;49.710;8.842;2023-03-01T05:49:22;23.55;;;12.70;;
52926;SDS011;40783;49.710;8.842;2023-03-01T05:51:51;22.85;;;11.38;;
52926;SDS011;40783;49.710;8.842;2023-03-01T05:54:20;22.30;;;11.82;;
52926;SDS011;40783;49.710;8.842;2023-03-01T05:56:46;26.92;;;12.90;;
52926;SDS011;40783;49.710;8.842;2023-03-01T05:59:12;20.40;;;10.80;;
52926;SDS011;40783;49.710;8.842;2023-03-01T06:04:04;25.50;;;11.80;;
52926;SDS011;40783;49.710;8.842;2023-03-01T06:06:29;24.33;;;10.37;;
52926;SDS011;40783;49.710;8.842;2023-03-01T06:08:58;33.42;;;14.07;;
52926;SDS011;40783;49.710;8.842;2023-03-01T06:11:25;25.23;;;14.53;;
52926;SDS011;40783;49.710;8.842;2023-03-01T06:13:53;29.30;;;12.70;;
52926;SDS011;40783;49.710;8.842;2023-03-01T06:16:20;30.35;;;15.02;;
52926;SDS011;40783;49.710;8.842;2023-03-01T06:18:50;29.05;;;11.77;;
52926;SDS011;40783;49.710;8.842;2023-03-01T06:21:15;26.58;;;13.10;;
52926;SDS011;40783;49.710;8.842;2023-03-01T06:23:40;23.17;;;12.57;;
52926;SDS011;40783;49.710;8.842;2023-03-01T06:26:08;24.95;;;14.32;;
52926;SDS011;40783;49.710;8.842;2023-03-01T06:28:34;29.50;;;14.52;;
52926;SDS011;40783;49.710;8.842;2023-03-01T06:31:00;23.95;;;13.73;;
52926;SDS011;40783;49.710;8.842;2023-03-01T06:33:25;22.53;;;12.63;;
52926;SDS011;40783;49.710;8.842;2023-03-01T06:35:51;36.50;;;25.30;;
52926;SDS011;40783;49.710;8.842;2023-03-01T06:38:19;32.95;;;17.77;;
52926;SDS011;40783;49.710;8.842;2023-03-01T06:40:44;33.70;;;18.17;;
52926;SDS011;40783;49.710;8.842;2023-03-01T06:43:16;28.90;;;16.17;;
52926;SDS011;40783;49.710;8.842;2023-03-01T06:45:43;26.52;;;12.75;;
52926;SDS011;40783;49.710;8.842;2023-03-01T06:48:08;34.70;;;17.73;;
52926;SDS011;40783;49.710;8.842;2023-03-01T06:50:35;30.20;;;16.10;;
52926;SDS011;40783;49.710;8.842;2023-03-01T06:53:01;29.02;;;15.10;;
52926;SDS011;40783;49.710;8.842;2023-03-01T06:55:26;29.98;;;16.58;;
52926;SDS011;40783;49.710;8.842;2023-03-01T06:57:55;31.33;;;15.33;;
52926;SDS011;40783;49.710;8.842;2023-03-01T07:00:24;26.52;;;14.23;;
52926;SDS011;40783;49.710;8.842;2023-03-01T07:02:52;35.17;;;16.10;;
52926;SDS011;40783;49.710;8.842;2023-03-01T07:05:18;32.60;;;15.60;;
52926;SDS011;40783;49.710;8.842;2023-03-01T07:07:43;25.20;;;13.43;;
52926;SDS011;40783;49.710;8.842;2023-03-01T07:10:09;25.77;;;14.53;;
52926;SDS011;40783;49.710;8.842;2023-03-01T07:12:35;26.95;;;14.23;;
52926;SDS011;40783;49.710;8.842;2023-03-01T07:15:01;26.03;;;14.17;;
52926;SDS011;40783;49.710;8.842;2023-03-01T07:17:26;36.20;;;16.20;;
52926;SDS011;40783;49.710;8.842;2023-03-01T07:19:51;25.57;;;13.03;;
52926;SDS011;40783;49.710;8.842;2023-03-01T07:22:16;31.20;;;13.93;;
52926;SDS011;40783;49.710;8.842;2023-03-01T07:24:44;30.60;;;13.98;;
52926;SDS011;40783;49.710;8.842;2023-03-01T07:27:12;22.40;;;12.55;;
52926;SDS011;40783;49.710;8.842;2023-03-01T07:29:37;22.10;;;12.67;;
52926;SDS011;40783;49.710;8.842;2023-03-01T07:32:03;29.53;;;16.47;;
52926;SDS011;40783;49.710;8.842;2023-03-01T07:34:29;28.55;;;15.60;;
52926;SDS011;40783;49.710;8.842;2023-03-01T07:36:57;34.25;;;15.60;;
52926;SDS011;40783;49.710;8.842;2023-03-01T07:39:22;24.17;;;13.03;;
52926;SDS011;40783;49.710;8.842;2023-03-01T07:41:50;20.52;;;12.82;;
52926;SDS011;40783;49.710;8.842;2023-03-01T07:44:16;29.80;;;13.13;;
52926;SDS011;40783;49.710;8.842;2023-03-01T07:46:43;23.17;;;11.82;;
52926;SDS011;40783;49.710;8.842;2023-03-01T07:49:09;20.63;;;11.10;;
52926;SDS011;40783;49.710;8.842;2023-03-01T07:51:35;25.02;;;12.85;;
52926;SDS011;40783;49.710;8.842;2023-03-01T07:54:00;24.37;;;12.47;;
52926;SDS011;40783;49.710;8.842;2023-03-01T07:56:28;23.35;;;12.40;;
52926;SDS011;40783;49.710;8.842;2023-03-01T07:58:53;22.17;;;11.53;;
52926;SDS011;40783;49.710;8.842;2023-03-01T08:01:19;22.37;;;12.07;;
52926;SDS011;40783;49.710;8.842;2023-03-01T08:03:48;23.35;;;11.88;;
52926;SDS011;40783;49.710;8.842;2023-03-01T08:06:16;23.45;;;11.85;;
52926;SDS011;40783;49.710;8.842;2023-03-01T08:08:43;22.08;;;13.35;;
52926;SDS011;40783;49.710;8.842;2023-03-01T08:11:12;27.42;;;13.75;;
52926;SDS011;40783;49.710;8.842;2023-03-01T08:13:39;25.67;;;12.88;;
52926;SDS011;40783;49.710;8.842;2023-03-01T08:16:09;31.60;;;16.10;;
52926;SDS011;40783;49.710;8.842;2023-03-01T08:18:36;27.48;;;13.80;;
52926;SDS011;40783;49.710;8.842;2023-03-01T08:21:06;22.47;;;12.97;;
52926;SDS011;40783;49.710;8.842;2023-03-01T08:23:36;35.40;;;12.82;;
52926;SDS011;40783;49.710;8.842;2023-03-01T08:26:05;26.33;;;13.50;;
52926;SDS011;40783;49.710;8.842;2023-03-01T08:28:39;19.70;;;11.50;;
52926;SDS011;40783;49.710;8.842;2023-03-01T08:31:19;25.10;;;13.05;;
52926;SDS011;40783;49.710;8.842;2023-03-01T08:33:56;23.83;;;12.55;;
52926;SDS011;40783;49.710;8.842;2023-03-01T08:36:27;37.60;;;15.07;;
52926;SDS011;40783;49.710;8.842;2023-03-01T08:38:54;27.95;;;12.88;;
52926;SDS011;40783;49.710;8.842;2023-03-01T08:41:20;20.53;;;12.97;;
52926;SDS011;40783;49.710;8.842;2023-03-01T08:43:45;25.43;;;11.73;;
52926;SDS011;40783;49.710;8.842;2023-03-01T08:46:11;26.90;;;13.20;;
52926;SDS011;40783;49.710;8.842;2023-03-01T08:48:39;23.27;;;13.43;;
52926;SDS011;40783;49.710;8.842;2023-03-01T08:51:11;21.70;;;13.15;;
52926;SDS011;40783;49.710;8.842;2023-03-01T08:53:42;29.30;;;14.10;;
52926;SDS011;40783;49.710;8.842;2023-03-01T08:56:08;25.30;;;13.63;;
52926;SDS011;40783;49.710;8.842;2023-03-01T08:58:34;23.25;;;13.55;;
52926;SDS011;40783;49.710;8.842;2023-03-01T09:01:06;25.25;;;11.63;;
52926;SDS011;40783;49.710;8.842;2023-03-01T09:03:33;22.05;;;11.40;;
52926;SDS011;40783;49.710;8.842;2023-03-01T09:06:02;27.40;;;13.07;;
52926;SDS011;40783;49.710;8.842;2023-03-01T09:08:29;24.40;;;12.10;;
52926;SDS011;40783;49.710;8.842;2023-03-01T09:10:55;30.17;;;14.43;;
52926;SDS011;40783;49.710;8.842;2023-03-01T09:13:22;33.65;;;13.75;;
52926;SDS011;40783;49.710;8.842;2023-03-01T09:15:52;27.70;;;14.60;;
52926;SDS011;40783;49.710;8.842;2023-03-01T09:18:20;24.48;;;13.48;;
52926;SDS011;40783;49.710;8.842;2023-03-01T09:20:45;26.97;;;12.57;;
52926;SDS011;40783;49.710;8.842;2023-03-01T09:23:13;23.95;;;14.63;;
52926;SDS011;40783;49.710;8.842;2023-03-01T09:25:38;26.33;;;15.27;;
52926;SDS011;40783;49.710;8.842;2023-03-01T09:28:03;23.73;;;13.23;;
52926;SDS011;40783;49.710;8.842;2023-03-01T09:33:53;25.25;;;13.00;;
52926;SDS011;40783;49.710;8.842;2023-03-01T09:36:22;29.08;;;15.43;;
52926;SDS011;40783;49.710;8.842;2023-03-01T09:38:52;27.83;;;14.82;;
52926;SDS011;40783;49.710;8.842;2023-03-01T09:41:32;30.42;;;13.90;;
52926;SDS011;40783;49.710;8.842;2023-03-01T09:47:05;25.52;;;13.70;;
52926;SDS011;40783;49.710;8.842;2023-03-01T09:49:45;21.80;;;13.25;;
52926;SDS011;40783;49.710;8.842;2023-03-01T09:52:29;28.60;;;13.23;;
52926;SDS011;40783;49.710;8.842;2023-03-01T09:55:04;27.83;;;14.02;;
52926;SDS011;40783;49.710;8.842;2023-03-01T09:57:48;30.80;;;14.27;;
52926;SDS011;40783;49.710;8.842;2023-03-01T10:08:41;30.55;;;17.73;;
52926;SDS011;40783;49.710;8.842;2023-03-01T10:11:17;23.10;;;12.48;;
52926;SDS011;40783;49.710;8.842;2023-03-01T10:13:54;32.63;;;15.40;;
52926;SDS011;40783;49.710;8.842;2023-03-01T10:22:26;28.70;;;14.60;;
52926;SDS011;40783;49.710;8.842;2023-03-01T10:24:59;28.52;;;14.90;;
52926;SDS011;40783;49.710;8.842;2023-03-01T10:27:49;26.42;;;15.52;;
52926;SDS011;40783;49.710;8.842;2023-03-01T10:33:03;30.98;;;14.98;;
52926;SDS011;40783;49.710;8.842;2023-03-01T10:35:40;24.55;;;13.70;;
52926;SDS011;40783;49.710;8.842;2023-03-01T10:38:10;26.13;;;17.70;;
52926;SDS011;40783;49.710;8.842;2023-03-01T10:40:57;25.08;;;13.05;;
52926;SDS011;40783;49.710;8.842;2023-03-01T10:43:26;24.20;;;12.90;;
52926;SDS011;40783;49.710;8.842;2023-03-01T10:45:57;24.10;;;13.00;;
52926;SDS011;40783;49.710;8.842;2023-03-01T10:51:04;19.85;;;12.07;;
52926;SDS011;40783;49.710;8.842;2023-03-01T10:53:35;26.40;;;13.68;;
52926;SDS011;40783;49.710;8.842;2023-03-01T10:56:09;20.25;;;12.23;;
52926;SDS011;40783;49.710;8.842;2023-03-01T10:58:38;28.20;;;14.60;;
52926;SDS011;40783;49.710;8.842;2023-03-01T11:01:24;25.85;;;14.07;;
52926;SDS011;40783;49.710;8.842;2023-03-01T11:04:08;23.10;;;13.75;;
52926;SDS011;40783;49.710;8.842;2023-03-01T11:06:37;26.55;;;14.75;;
52926;SDS011;40783;49.710;8.842;2023-03-01T11:09:15;24.40;;;13.20;;
52926;SDS011;40783;49.710;8.842;2023-03-01T11:11:57;30.90;;;15.40;;
52926;SDS011;40783;49.710;8.842;2023-03-01T11:14:27;27.17;;;15.57;;
52926;SDS011;40783;49.710;8.842;2023-03-01T11:19:39;20.77;;;12.90;;
52926;SDS011;40783;49.710;8.842;2023-03-01T11:22:11;33.97;;;15.17;;
52926;SDS011;40783;49.710;8.842;2023-03-01T11:24:46;25.52;;;15.13;;
52926;SDS011;40783;49.710;8.842;2023-03-01T11:27:24;19.73;;;12.90;;
52926;SDS011;40783;49.710;8.842;2023-03-01T11:29:51;23.10;;;12.95;;
52926;SDS011;40783;49.710;8.842;2023-03-01T11:32:24;27.65;;;14.02;;
52926;SDS011;40783;49.710;8.842;2023-03-01T11:35:08;27.15;;;14.60;;
52926;SDS011;40783;49.710;8.842;2023-03-01T11:54:44;29.08;;;12.25;;
52926;SDS011;40783;49.710;8.842;2023-03-01T12:11:46;26.52;;;12.88;;
52926;SDS011;40783;49.710;8.842;2023-03-01T12:14:40;23.67;;;13.45;;
52926;SDS011;40783;49.710;8.842;2023-03-01T12:45:47;22.58;;;10.80;;
52926;SDS011;40783;49.710;8.842;2023-03-01T12:51:06;16.10;;;10.27;;
52926;SDS011;40783;49.710;8.842;2023-03-01T12:53:36;21.25;;;12.15;;
52926;SDS011;40783;49.710;8.842;2023-03-01T12:56:07;30.13;;;15.00;;
52926;SDS011;40783;49.710;8.842;2023-03-01T13:09:31;19.02;;;11.13;;
52926;SDS011;40783;49.710;8.842;2023-03-01T13:12:00;17.63;;;10.05;;
52926;SDS011;40783;49.710;8.842;2023-03-01T13:16:53;19.73;;;13.10;;
52926;SDS011;40783;49.710;8.842;2023-03-01T13:19:22;17.48;;;10.82;;
52926;SDS011;40783;49.710;8.842;2023-03-01T13:21:51;16.33;;;11.13;;
52926;SDS011;40783;49.710;8.842;2023-03-01T13:29:30;22.70;;;10.95;;
52926;SDS011;40783;49.710;8.842;2023-03-01T13:35:31;21.73;;;12.38;;
52926;SDS011;40783;49.710;8.842;2023-03-01T13:37:46;16.40;;;10.23;;
52926;SDS011;40783;49.710;8.842;2023-03-01T13:46:18;22.23;;;10.18;;
52926;SDS011;40783;49.710;8.842;2023-03-01T13:48:48;16.83;;;10.82;;
52926;SDS011;40783;49.710;8.842;2023-03-01T13:51:19;16.75;;;9.82;;
52926;SDS011;40783;49.710;8.842;2023-03-01T13:53:50;25.27;;;13.07;;
52926;SDS011;40783;49.710;8.842;2023-03-01T13:56:27;15.05;;;12.02;;
52926;SDS011;40783;49.710;8.842;2023-03-01T13:59:04;19.98;;;9.90;;
52926;SDS011;40783;49.710;8.842;2023-03-01T14:01:40;20.30;;;12.43;;
52926;SDS011;40783;49.710;8.842;2023-03-01T14:19:47;17.88;;;9.90;;
52926;SDS011;40783;49.710;8.842;2023-03-01T14:22:34;21.33;;;9.88;;
52926;SDS011;40783;49.710;8.842;2023-03-01T14:25:05;15.68;;;8.43;;
52926;SDS011;40783;49.710;8.842;2023-03-01T14:27:42;16.95;;;9.45;;
52926;SDS011;40783;49.710;8.842;2023-03-01T14:30:19;18.35;;;9.93;;
52926;SDS011;40783;49.710;8.842;2023-03-01T14:33:01;21.08;;;11.68;;
52926;SDS011;40783;49.710;8.842;2023-03-01T14:35:32;13.27;;;9.77;;
52926;SDS011;40783;49.710;8.842;2023-03-01T14:38:03;13.65;;;9.07;;
52926;SDS011;40783;49.710;8.842;2023-03-01T14:40:30;15.07;;;10.30;;
52926;SDS011;40783;49.710;8.842;2023-03-01T15:02:58;14.97;;;8.03;;
52926;SDS011;40783;49.710;8.842;2023-03-01T15:08:39;16.23;;;8.75;;
52926;SDS011;40783;49.710;8.842;2023-03-01T15:13:56;11.77;;;7.50;;
52926;SDS011;40783;49.710;8.842;2023-03-01T15:16:23;19.00;;;10.88;;
52926;SDS011;40783;49.710;8.842;2023-03-01T15:18:54;16.17;;;8.27;;
52926;SDS011;40783;49.710;8.842;2023-03-01T15:23:57;15.05;;;9.23;;
52926;SDS011;40783;49.710;8.842;2023-03-01T15:26:26;13.85;;;9.00;;
52926;SDS011;40783;49.710;8.842;2023-03-01T15:28:55;15.27;;;9.10;;
52926;SDS011;40783;49.710;8.842;2023-03-01T15:31:36;18.77;;;8.18;;
52926;SDS011;40783;49.710;8.842;2023-03-01T15:34:22;12.93;;;8.25;;
52926;SDS011;40783;49.710;8.842;2023-03-01T15:36:51;12.70;;;8.80;;
52926;SDS011;40783;49.710;8.842;2023-03-01T15:42:06;13.02;;;8.90;;
52926;SDS011;40783;49.710;8.842;2023-03-01T15:44:37;14.88;;;9.32;;
52926;SDS011;40783;49.710;8.842;2023-03-01T15:47:22;12.90;;;8.52;;
52926;SDS011;40783;49.710;8.842;2023-03-01T15:49:48;14.38;;;7.80;;
52926;SDS011;40783;49.710;8.842;2023-03-01T15:52:21;11.63;;;8.25;;
52926;SDS011;40783;49.710;8.842;2023-03-01T15:58:23;12.18;;;7.82;;
52926;SDS011;40783;49.710;8.842;2023-03-01T16:00:54;14.00;;;9.65;;
52926;SDS011;40783;49.710;8.842;2023-03-01T16:03:23;15.07;;;9.18;;
52926;SDS011;40783;49.710;8.842;2023-03-01T16:05:49;19.67;;;10.97;;
52926;SDS011;40783;49.710;8.842;2023-03-01T16:08:15;13.38;;;7.15;;
52926;SDS011;40783;49.710;8.842;2023-03-01T16:10:42;11.93;;;8.27;;
52926;SDS011;40783;49.710;8.842;2023-03-01T16:13:11;16.23;;;8.70;;
52926;SDS011;40783;49.710;8.842;2023-03-01T16:15:37;17.90;;;7.45;;
52926;SDS011;40783;49.710;8.842;2023-03-01T16:18:04;12.98;;;8.15;;
52926;SDS011;40783;49.710;8.842;2023-03-01T16:20:35;20.48;;;9.98;;
52926;SDS011;40783;49.710;8.842;2023-03-01T16:23:03;17.37;;;8.90;;
52926;SDS011;40783;49.710;8.842;2023-03-01T16:25:31;17.05;;;9.52;;
52926;SDS011;40783;49.710;8.842;2023-03-01T16:27:57;25.70;;;8.95;;
52926;SDS011;40783;49.710;8.842;2023-03-01T16:30:26;14.38;;;8.90;;
52926;SDS011;40783;49.710;8.842;2023-03-01T16:35:23;19.05;;;10.57;;
52926;SDS011;40783;49.710;8.842;2023-03-01T16:37:48;12.40;;;7.33;;
52926;SDS011;40783;49.710;8.842;2023-03-01T16:40:23;16.40;;;8.57;;
52926;SDS011;40783;49.710;8.842;2023-03-01T16:42:51;13.27;;;7.85;;
52926;SDS011;40783;49.710;8.842;2023-03-01T16:45:18;18.17;;;10.43;;
52926;SDS011;40783;49.710;8.842;2023-03-01T16:47:43;12.10;;;9.13;;
52926;SDS011;40783;49.710;8.842;2023-03-01T16:50:11;14.27;;;8.80;;
52926;SDS011;40783;49.710;8.842;2023-03-01T16:52:37;13.60;;;9.27;;
52926;SDS011;40783;49.710;8.842;2023-03-01T16:55:03;15.97;;;7.50;;
52926;SDS011;40783;49.710;8.842;2023-03-01T16:57:30;13.13;;;7.22;;
52926;SDS011;40783;49.710;8.842;2023-03-01T16:59:58;20.67;;;11.50;;
52926;SDS011;40783;49.710;8.842;2023-03-01T17:02:23;20.20;;;12.43;;
52926;SDS011;40783;49.710;8.842;2023-03-01T17:04:52;20.47;;;11.07;;
52926;SDS011;40783;49.710;8.842;2023-03-01T17:07:20;18.40;;;10.32;;
52926;SDS011;40783;49.710;8.842;2023-03-01T17:12:12;26.52;;;11.13;;
52926;SDS011;40783;49.710;8.842;2023-03-01T17:14:38;20.05;;;12.93;;
52926;SDS011;40783;49.710;8.842;2023-03-01T17:17:06;16.98;;;11.07;;
52926;SDS011;40783;49.710;8.842;2023-03-01T17:19:32;17.42;;;12.18;;
52926;SDS011;40783;49.710;8.842;2023-03-01T17:22:00;19.63;;;10.37;;
52926;SDS011;40783;49.710;8.842;2023-03-01T17:24:26;22.98;;;12.52;;
52926;SDS011;40783;49.710;8.842;2023-03-01T17:26:54;26.02;;;13.55;;
52926;SDS011;40783;49.710;8.842;2023-03-01T17:29:19;23.03;;;15.20;;
52926;SDS011;40783;49.710;8.842;2023-03-01T17:31:45;18.17;;;13.27;;
52926;SDS011;40783;49.710;8.842;2023-03-01T17:34:12;132.55;;;59.47;;
52926;SDS011;40783;49.710;8.842;2023-03-01T17:36:37;129.60;;;55.23;;
52926;SDS011;40783;49.710;8.842;2023-03-01T17:39:09;55.72;;;28.65;;
52926;SDS011;40783;49.710;8.842;2023-03-01T17:41:37;25.23;;;14.85;;
52926;SDS011;40783;49.710;8.842;2023-03-01T17:44:02;22.93;;;12.37;;
52926;SDS011;40783;49.710;8.842;2023-03-01T17:46:28;41.83;;;20.53;;
52926;SDS011;40783;49.710;8.842;2023-03-01T17:48:53;22.87;;;13.53;;
52926;SDS011;40783;49.710;8.842;2023-03-01T17:51:19;24.40;;;15.83;;
52926;SDS011;40783;49.710;8.842;2023-03-01T17:53:44;24.50;;;18.20;;
52926;SDS011;40783;49.710;8.842;2023-03-01T17:56:12;18.92;;;11.70;;